sensor_id;sensor_type;location;lat;lon;timestamp;temperature;humidity
4908;DHT22;64375;51.540;7.364;2023-10-19T00:00:19;14.40;99.90
4908;DHT22;64375;51.540;7.364;2023-10-19T00:02:54;14.40;99.90
4908;DHT22;64375;51.540;7.364;2023-10-19T00:05:29;14.50;99.90
4908;DHT22;64375;51.540;7.364;2023-10-19T00:08:06;14.50;99.90
4908;DHT22;64375;51.540;7.364;2023-10-19T00:10:48;14.60;99.90
4908;DHT22;64375;51.540;7.364;2023-10-19T00:13:23;14.70;99.90
4908;DHT22;64375;51.540;7.364;2023-10-19T00:15:51;14.70;99.90
4908;DHT22;64375;51.540;7.364;2023-10-19T00:18:20;14.70;99.90
4908;DHT22;64375;51.540;7.364;2023-10-19T00:20:54;14.70;99.90
4908;DHT22;64375;51.540;7.364;2023-10-19T00:23:43;14.70;99.90
4908;DHT22;64375;51.540;7.364;2023-10-19T00:26:17;14.60;99.90
4908;DHT22;64375;51.540;7.364;2023-10-19T00:28:48;14.80;99.90
4908;DHT22;64375;51.540;7.364;2023-10-19T00:31:19;14.90;99.90
4908;DHT22;64375;51.540;7.364;2023-10-19T00:34:06;15.00;99.90
4908;DHT22;64375;51.540;7.364;2023-10-19T00:36:40;14.90;99.90
4908;DHT22;64375;51.540;7.364;2023-10-19T00:39:14;14.90;99.90
4908;DHT22;64375;51.540;7.364;2023-10-19T00:41:50;14.90;99.90
4908;DHT22;64375;51.540;7.364;2023-10-19T00:44:41;14.80;99.90
4908;DHT22;64375;51.540;7.364;2023-10-19T00:47:15;14.80;99.90
4908;DHT22;64375;51.540;7.364;2023-10-19T00:49:48;14.60;99.90
4908;DHT22;64375;51.540;7.364;2023-10-19T00:52:20;14.60;99.90
4908;DHT22;64375;51.540;7.364;2023-10-19T00:54:53;14.60;99.90
4908;DHT22;64375;51.540;7.364;2023-10-19T00:57:31;14.60;99.90
4908;DHT22;64375;51.540;7.364;2023-10-19T01:00:07;14.70;99.90
4908;DHT22;64375;51.540;7.364;2023-10-19T01:02:39;14.70;99.90
4908;DHT22;64375;51.540;7.364;2023-10-19T01:05:19;14.80;99.90
4908;DHT22;64375;51.540;7.364;2023-10-19T01:07:55;14.80;99.90
4908;DHT22;64375;51.540;7.364;2023-10-19T01:10:24;14.90;99.90
4908;DHT22;64375;51.540;7.364;2023-10-19T01:12:55;15.30;99.90
4908;DHT22;64375;51.540;7.364;2023-10-19T01:15:33;15.30;99.90
4908;DHT22;64375;51.540;7.364;2023-10-19T01:18:06;15.30;99.90
4908;DHT22;64375;51.540;7.364;2023-10-19T01:20:37;15.20;99.90
4908;DHT22;64375;51.540;7.364;2023-10-19T01:23:18;15.30;99.90
4908;DHT22;64375;51.540;7.364;2023-10-19T01:25:57;15.40;99.90
4908;DHT22;64375;51.540;7.364;2023-10-19T01:28:36;15.50;99.90
4908;DHT22;64375;51.540;7.364;2023-10-19T01:31:26;15.50;99.90
4908;DHT22;64375;51.540;7.364;2023-10-19T01:34:08;15.60;99.90
4908;DHT22;64375;51.540;7.364;2023-10-19T01:36:49;15.80;99.90
4908;DHT22;64375;51.540;7.364;2023-10-19T01:39:26;15.90;99.90
4908;DHT22;64375;51.540;7.364;2023-10-19T01:41:57;16.10;99.90
4908;DHT22;64375;51.540;7.364;2023-10-19T01:44:33;16.10;99.90
4908;DHT22;64375;51.540;7.364;2023-10-19T01:47:05;16.20;99.90
4908;DHT22;64375;51.540;7.364;2023-10-19T01:49:48;16.20;99.90
4908;DHT22;64375;51.540;7.364;2023-10-19T01:52:32;16.20;99.90
4908;DHT22;64375;51.540;7.364;2023-10-19T01:55:02;16.20;99.90
4908;DHT22;64375;51.540;7.364;2023-10-19T01:57:34;16.20;99.90
4908;DHT22;64375;51.540;7.364;2023-10-19T02:00:02;16.20;99.90
4908;DHT22;64375;51.540;7.364;2023-10-19T02:02:46;16.20;99.90
4908;DHT22;64375;51.540;7.364;2023-10-19T02:05:15;16.20;99.90
4908;DHT22;64375;51.540;7.364;2023-10-19T02:07:51;16.30;99.90
4908;DHT22;64375;51.540;7.364;2023-10-19T02:10:23;16.40;99.90
4908;DHT22;64375;51.540;7.364;2023-10-19T02:12:53;16.40;99.90
4908;DHT22;64375;51.540;7.364;2023-10-19T02:15:22;16.30;99.90
4908;DHT22;64375;51.540;7.364;2023-10-19T02:17:56;16.40;99.90
4908;DHT22;64375;51.540;7.364;2023-10-19T02:20:28;16.70;99.90
4908;DHT22;64375;51.540;7.364;2023-10-19T02:23:13;16.60;99.90
4908;DHT22;64375;51.540;7.364;2023-10-19T02:25:43;16.70;99.90
4908;DHT22;64375;51.540;7.364;2023-10-19T02:28:16;16.90;99.90
4908;DHT22;64375;51.540;7.364;2023-10-19T02:30:47;16.90;99.90
4908;DHT22;64375;51.540;7.364;2023-10-19T02:33:18;17.00;99.90
4908;DHT22;64375;51.540;7.364;2023-10-19T02:35:54;16.90;99.90
4908;DHT22;64375;51.540;7.364;2023-10-19T02:38:32;17.00;99.90
4908;DHT22;64375;51.540;7.364;2023-10-19T02:41:01;16.90;99.90
4908;DHT22;64375;51.540;7.364;2023-10-19T02:43:30;17.00;99.90
4908;DHT22;64375;51.540;7.364;2023-10-19T02:46:10;16.90;99.90
4908;DHT22;64375;51.540;7.364;2023-10-19T02:48:49;16.90;99.90
4908;DHT22;64375;51.540;7.364;2023-10-19T02:51:16;16.80;99.90
4908;DHT22;64375;51.540;7.364;2023-10-19T02:53:51;16.80;99.90
4908;DHT22;64375;51.540;7.364;2023-10-19T02:56:27;16.80;99.90
4908;DHT22;64375;51.540;7.364;2023-10-19T02:58:56;16.70;99.90
4908;DHT22;64375;51.540;7.364;2023-10-19T03:01:47;16.70;99.90
4908;DHT22;64375;51.540;7.364;2023-10-19T03:04:22;16.60;99.90
4908;DHT22;64375;51.540;7.364;2023-10-19T03:07:09;16.60;99.90
4908;DHT22;64375;51.540;7.364;2023-10-19T03:09:41;16.50;99.90
4908;DHT22;64375;51.540;7.364;2023-10-19T03:12:23;16.50;99.90
4908;DHT22;64375;51.540;7.364;2023-10-19T03:14:53;16.50;99.90
4908;DHT22;64375;51.540;7.364;2023-10-19T03:17:26;16.50;99.90
4908;DHT22;64375;51.540;7.364;2023-10-19T03:19:56;16.50;99.90
4908;DHT22;64375;51.540;7.364;2023-10-19T03:22:31;16.40;99.90
4908;DHT22;64375;51.540;7.364;2023-10-19T03:25:04;16.50;99.90
4908;DHT22;64375;51.540;7.364;2023-10-19T03:28:09;16.40;99.90
4908;DHT22;64375;51.540;7.364;2023-10-19T03:30:38;16.40;99.90
4908;DHT22;64375;51.540;7.364;2023-10-19T03:33:06;16.40;99.90
4908;DHT22;64375;51.540;7.364;2023-10-19T03:35:39;16.40;99.90
4908;DHT22;64375;51.540;7.364;2023-10-19T03:38:08;16.40;99.90
4908;DHT22;64375;51.540;7.364;2023-10-19T03:40:41;16.50;99.90
4908;DHT22;64375;51.540;7.364;2023-10-19T03:43:23;16.40;99.90
4908;DHT22;64375;51.540;7.364;2023-10-19T03:45:58;16.50;99.90
4908;DHT22;64375;51.540;7.364;2023-10-19T03:48:40;16.50;99.90
4908;DHT22;64375;51.540;7.364;2023-10-19T03:51:12;16.50;99.90
4908;DHT22;64375;51.540;7.364;2023-10-19T03:53:44;16.50;99.90
4908;DHT22;64375;51.540;7.364;2023-10-19T03:56:23;16.50;99.90
4908;DHT22;64375;51.540;7.364;2023-10-19T03:58:54;16.50;99.90
4908;DHT22;64375;51.540;7.364;2023-10-19T04:01:36;16.50;99.90
4908;DHT22;64375;51.540;7.364;2023-10-19T04:04:10;16.50;99.90
4908;DHT22;64375;51.540;7.364;2023-10-19T04:06:43;16.40;99.90
4908;DHT22;64375;51.540;7.364;2023-10-19T04:09:26;16.40;99.90
4908;DHT22;64375;51.540;7.364;2023-10-19T04:12:05;16.40;99.90
4908;DHT22;64375;51.540;7.364;2023-10-19T04:14:34;16.40;99.90
4908;DHT22;64375;51.540;7.364;2023-10-19T04:17:05;16.40;99.90
4908;DHT22;64375;51.540;7.364;2023-10-19T04:19:33;16.40;99.90
4908;DHT22;64375;51.540;7.364;2023-10-19T04:22:07;16.40;99.90
4908;DHT22;64375;51.540;7.364;2023-10-19T04:24:46;16.40;99.90
4908;DHT22;64375;51.540;7.364;2023-10-19T04:27:14;16.40;99.90
4908;DHT22;64375;51.540;7.364;2023-10-19T04:29:43;16.40;99.90
4908;DHT22;64375;51.540;7.364;2023-10-19T04:32:21;16.40;99.90
4908;DHT22;64375;51.540;7.364;2023-10-19T04:34:52;16.40;99.90
4908;DHT22;64375;51.540;7.364;2023-10-19T04:37:30;16.40;99.90
4908;DHT22;64375;51.540;7.364;2023-10-19T04:39:58;16.40;99.90
4908;DHT22;64375;51.540;7.364;2023-10-19T04:42:33;16.40;99.90
4908;DHT22;64375;51.540;7.364;2023-10-19T04:45:16;16.40;99.90
4908;DHT22;64375;51.540;7.364;2023-10-19T04:47:49;16.50;99.90
4908;DHT22;64375;51.540;7.364;2023-10-19T04:50:19;16.50;99.90
4908;DHT22;64375;51.540;7.364;2023-10-19T04:52:59;16.50;99.90
4908;DHT22;64375;51.540;7.364;2023-10-19T04:55:33;16.40;99.90
4908;DHT22;64375;51.540;7.364;2023-10-19T04:58:10;16.40;99.90
4908;DHT22;64375;51.540;7.364;2023-10-19T05:00:42;16.40;99.90
4908;DHT22;64375;51.540;7.364;2023-10-19T05:03:13;16.50;99.90
4908;DHT22;64375;51.540;7.364;2023-10-19T05:05:47;16.50;99.90
4908;DHT22;64375;51.540;7.364;2023-10-19T05:08:15;16.50;99.90
4908;DHT22;64375;51.540;7.364;2023-10-19T05:10:52;16.60;99.90
4908;DHT22;64375;51.540;7.364;2023-10-19T05:13:21;16.60;99.90
4908;DHT22;64375;51.540;7.364;2023-10-19T05:15:56;16.60;99.90
4908;DHT22;64375;51.540;7.364;2023-10-19T05:18:26;16.60;99.90
4908;DHT22;64375;51.540;7.364;2023-10-19T05:20:54;16.50;99.90
4908;DHT22;64375;51.540;7.364;2023-10-19T05:23:23;16.60;99.90
4908;DHT22;64375;51.540;7.364;2023-10-19T05:26:01;16.60;99.90
4908;DHT22;64375;51.540;7.364;2023-10-19T05:28:33;16.60;99.90
4908;DHT22;64375;51.540;7.364;2023-10-19T05:31:11;16.70;99.90
4908;DHT22;64375;51.540;7.364;2023-10-19T05:33:42;16.70;99.90
4908;DHT22;64375;51.540;7.364;2023-10-19T05:36:10;16.70;99.90
4908;DHT22;64375;51.540;7.364;2023-10-19T05:38:41;16.70;99.90
4908;DHT22;64375;51.540;7.364;2023-10-19T05:41:09;16.80;99.90
4908;DHT22;64375;51.540;7.364;2023-10-19T05:43:38;16.80;99.90
4908;DHT22;64375;51.540;7.364;2023-10-19T05:46:07;16.80;99.90
4908;DHT22;64375;51.540;7.364;2023-10-19T05:48:37;16.80;99.90
4908;DHT22;64375;51.540;7.364;2023-10-19T05:51:07;16.90;99.90
4908;DHT22;64375;51.540;7.364;2023-10-19T05:53:35;16.90;99.90
4908;DHT22;64375;51.540;7.364;2023-10-19T05:56:04;16.90;99.90
4908;DHT22;64375;51.540;7.364;2023-10-19T05:58:33;16.90;99.90
4908;DHT22;64375;51.540;7.364;2023-10-19T06:01:04;16.90;99.90
4908;DHT22;64375;51.540;7.364;2023-10-19T06:03:34;16.90;99.90
4908;DHT22;64375;51.540;7.364;2023-10-19T06:06:05;16.90;99.90
4908;DHT22;64375;51.540;7.364;2023-10-19T06:08:34;16.90;99.90
4908;DHT22;64375;51.540;7.364;2023-10-19T06:11:02;16.80;99.90
4908;DHT22;64375;51.540;7.364;2023-10-19T06:13:39;16.80;99.90
4908;DHT22;64375;51.540;7.364;2023-10-19T06:16:07;16.80;99.90
4908;DHT22;64375;51.540;7.364;2023-10-19T06:18:37;16.80;99.90
4908;DHT22;64375;51.540;7.364;2023-10-19T06:21:05;16.80;99.90
4908;DHT22;64375;51.540;7.364;2023-10-19T06:23:33;16.80;99.90
4908;DHT22;64375;51.540;7.364;2023-10-19T06:26:08;16.80;99.90
4908;DHT22;64375;51.540;7.364;2023-10-19T06:28:38;16.90;99.90
4908;DHT22;64375;51.540;7.364;2023-10-19T06:31:07;16.90;99.90
4908;DHT22;64375;51.540;7.364;2023-10-19T06:33:37;16.90;99.90
4908;DHT22;64375;51.540;7.364;2023-10-19T06:36:08;16.90;99.90
4908;DHT22;64375;51.540;7.364;2023-10-19T06:38:42;16.90;99.90
4908;DHT22;64375;51.540;7.364;2023-10-19T06:41:11;16.90;99.90
4908;DHT22;64375;51.540;7.364;2023-10-19T06:43:39;16.80;99.90
4908;DHT22;64375;51.540;7.364;2023-10-19T06:46:08;16.80;99.90
4908;DHT22;64375;51.540;7.364;2023-10-19T06:48:40;16.80;99.90
4908;DHT22;64375;51.540;7.364;2023-10-19T06:51:12;16.80;99.90
4908;DHT22;64375;51.540;7.364;2023-10-19T06:53:43;16.80;99.90
4908;DHT22;64375;51.540;7.364;2023-10-19T06:56:14;16.80;99.90
4908;DHT22;64375;51.540;7.364;2023-10-19T06:58:49;16.70;99.90
4908;DHT22;64375;51.540;7.364;2023-10-19T07:01:24;16.70;99.90
4908;DHT22;64375;51.540;7.364;2023-10-19T07:04:14;16.60;99.90
4908;DHT22;64375;51.540;7.364;2023-10-19T07:06:48;16.60;99.90
4908;DHT22;64375;51.540;7.364;2023-10-19T07:09:17;16.70;99.90
4908;DHT22;64375;51.540;7.364;2023-10-19T07:11:45;16.70;99.90
4908;DHT22;64375;51.540;7.364;2023-10-19T07:14:16;16.80;99.90
4908;DHT22;64375;51.540;7.364;2023-10-19T07:16:47;16.80;99.90
4908;DHT22;64375;51.540;7.364;2023-10-19T07:19:17;16.80;99.90
4908;DHT22;64375;51.540;7.364;2023-10-19T07:21:45;16.80;99.90
4908;DHT22;64375;51.540;7.364;2023-10-19T07:24:17;16.70;99.90
4908;DHT22;64375;51.540;7.364;2023-10-19T07:26:46;16.70;99.90
4908;DHT22;64375;51.540;7.364;2023-10-19T07:29:44;16.70;99.90
4908;DHT22;64375;51.540;7.364;2023-10-19T07:32:19;16.80;99.90
4908;DHT22;64375;51.540;7.364;2023-10-19T07:34:57;16.80;99.90
4908;DHT22;64375;51.540;7.364;2023-10-19T07:37:26;16.80;99.90
4908;DHT22;64375;51.540;7.364;2023-10-19T07:39:54;16.80;99.90
4908;DHT22;64375;51.540;7.364;2023-10-19T07:42:23;16.80;99.90
4908;DHT22;64375;51.540;7.364;2023-10-19T07:44:56;16.80;99.90
4908;DHT22;64375;51.540;7.364;2023-10-19T07:47:34;16.90;99.90
4908;DHT22;64375;51.540;7.364;2023-10-19T07:50:10;16.90;99.90
4908;DHT22;64375;51.540;7.364;2023-10-19T07:52:56;16.90;99.90
4908;DHT22;64375;51.540;7.364;2023-10-19T07:55:28;16.90;99.90
4908;DHT22;64375;51.540;7.364;2023-10-19T07:58:01;16.90;99.90
4908;DHT22;64375;51.540;7.364;2023-10-19T08:00:30;16.90;99.90
4908;DHT22;64375;51.540;7.364;2023-10-19T08:03:01;16.90;99.90
4908;DHT22;64375;51.540;7.364;2023-10-19T08:05:31;16.90;99.90
4908;DHT22;64375;51.540;7.364;2023-10-19T08:08:00;16.90;99.90
4908;DHT22;64375;51.540;7.364;2023-10-19T08:10:38;16.90;99.90
4908;DHT22;64375;51.540;7.364;2023-10-19T08:13:06;16.80;99.90
4908;DHT22;64375;51.540;7.364;2023-10-19T08:15:37;16.80;99.90
4908;DHT22;64375;51.540;7.364;2023-10-19T08:18:08;16.80;99.90
4908;DHT22;64375;51.540;7.364;2023-10-19T08:20:42;16.70;99.90
4908;DHT22;64375;51.540;7.364;2023-10-19T08:23:12;16.70;99.90
4908;DHT22;64375;51.540;7.364;2023-10-19T08:25:46;16.70;99.90
4908;DHT22;64375;51.540;7.364;2023-10-19T08:28:25;16.70;99.90
4908;DHT22;64375;51.540;7.364;2023-10-19T08:30:59;16.70;99.90
4908;DHT22;64375;51.540;7.364;2023-10-19T08:33:34;16.70;99.90
4908;DHT22;64375;51.540;7.364;2023-10-19T08:36:16;16.70;99.90
4908;DHT22;64375;51.540;7.364;2023-10-19T08:38:46;16.70;99.90
4908;DHT22;64375;51.540;7.364;2023-10-19T08:41:19;16.70;99.90
4908;DHT22;64375;51.540;7.364;2023-10-19T08:43:58;16.70;99.90
4908;DHT22;64375;51.540;7.364;2023-10-19T08:46:37;16.70;99.90
4908;DHT22;64375;51.540;7.364;2023-10-19T08:49:06;16.80;99.90
4908;DHT22;64375;51.540;7.364;2023-10-19T08:51:43;16.80;99.90
4908;DHT22;64375;51.540;7.364;2023-10-19T08:54:15;16.80;99.90
4908;DHT22;64375;51.540;7.364;2023-10-19T08:56:45;16.90;99.90
4908;DHT22;64375;51.540;7.364;2023-10-19T08:59:19;16.90;99.90
4908;DHT22;64375;51.540;7.364;2023-10-19T09:01:47;16.90;99.90
4908;DHT22;64375;51.540;7.364;2023-10-19T09:04:17;16.90;99.90
4908;DHT22;64375;51.540;7.364;2023-10-19T09:06:57;17.00;99.90
4908;DHT22;64375;51.540;7.364;2023-10-19T09:09:30;17.00;99.90
4908;DHT22;64375;51.540;7.364;2023-10-19T09:12:00;17.00;99.90
4908;DHT22;64375;51.540;7.364;2023-10-19T09:14:33;17.10;99.90
4908;DHT22;64375;51.540;7.364;2023-10-19T09:17:02;17.10;99.90
4908;DHT22;64375;51.540;7.364;2023-10-19T09:19:45;17.10;99.90
4908;DHT22;64375;51.540;7.364;2023-10-19T09:22:15;17.10;99.90
4908;DHT22;64375;51.540;7.364;2023-10-19T09:24:49;17.20;99.90
4908;DHT22;64375;51.540;7.364;2023-10-19T09:27:24;17.20;99.90
4908;DHT22;64375;51.540;7.364;2023-10-19T09:29:53;17.30;99.90
4908;DHT22;64375;51.540;7.364;2023-10-19T09:32:22;17.30;99.90
4908;DHT22;64375;51.540;7.364;2023-10-19T09:34:56;17.30;99.90
4908;DHT22;64375;51.540;7.364;2023-10-19T09:37:26;17.40;99.90
4908;DHT22;64375;51.540;7.364;2023-10-19T09:39:56;17.40;99.90
4908;DHT22;64375;51.540;7.364;2023-10-19T09:42:30;17.40;99.90
4908;DHT22;64375;51.540;7.364;2023-10-19T09:45:05;17.30;99.90
4908;DHT22;64375;51.540;7.364;2023-10-19T09:47:35;17.30;99.90
4908;DHT22;64375;51.540;7.364;2023-10-19T09:50:06;17.30;99.90
4908;DHT22;64375;51.540;7.364;2023-10-19T09:52:42;17.30;99.90
4908;DHT22;64375;51.540;7.364;2023-10-19T09:55:14;17.40;99.90
4908;DHT22;64375;51.540;7.364;2023-10-19T09:57:56;17.40;99.90
4908;DHT22;64375;51.540;7.364;2023-10-19T10:00:29;17.40;99.90
4908;DHT22;64375;51.540;7.364;2023-10-19T10:03:01;17.40;99.90
4908;DHT22;64375;51.540;7.364;2023-10-19T10:05:45;17.40;99.90
4908;DHT22;64375;51.540;7.364;2023-10-19T10:08:34;17.40;99.90
4908;DHT22;64375;51.540;7.364;2023-10-19T10:11:21;17.50;99.90
4908;DHT22;64375;51.540;7.364;2023-10-19T10:13:53;17.50;99.90
4908;DHT22;64375;51.540;7.364;2023-10-19T10:16:33;17.60;99.90
4908;DHT22;64375;51.540;7.364;2023-10-19T10:19:04;17.70;99.90
4908;DHT22;64375;51.540;7.364;2023-10-19T10:21:42;17.80;99.90
4908;DHT22;64375;51.540;7.364;2023-10-19T10:24:27;17.80;99.90
4908;DHT22;64375;51.540;7.364;2023-10-19T10:27:00;17.80;99.90
4908;DHT22;64375;51.540;7.364;2023-10-19T10:29:33;17.80;99.90
4908;DHT22;64375;51.540;7.364;2023-10-19T10:32:01;17.80;99.90
4908;DHT22;64375;51.540;7.364;2023-10-19T10:34:45;17.90;99.90
4908;DHT22;64375;51.540;7.364;2023-10-19T10:37:18;17.90;99.90
4908;DHT22;64375;51.540;7.364;2023-10-19T10:39:49;17.90;99.90
4908;DHT22;64375;51.540;7.364;2023-10-19T10:42:17;17.90;99.90
4908;DHT22;64375;51.540;7.364;2023-10-19T10:44:48;17.90;99.90
4908;DHT22;64375;51.540;7.364;2023-10-19T10:47:20;18.00;99.90
4908;DHT22;64375;51.540;7.364;2023-10-19T10:49:53;18.00;99.90
4908;DHT22;64375;51.540;7.364;2023-10-19T10:52:32;18.00;99.90
4908;DHT22;64375;51.540;7.364;2023-10-19T10:55:08;18.00;99.90
4908;DHT22;64375;51.540;7.364;2023-10-19T10:57:39;18.00;99.90
4908;DHT22;64375;51.540;7.364;2023-10-19T11:00:10;18.10;99.90
4908;DHT22;64375;51.540;7.364;2023-10-19T11:02:43;18.10;99.90
4908;DHT22;64375;51.540;7.364;2023-10-19T11:05:14;18.20;99.90
4908;DHT22;64375;51.540;7.364;2023-10-19T11:08:03;18.30;99.90
4908;DHT22;64375;51.540;7.364;2023-10-19T11:10:36;18.30;99.90
4908;DHT22;64375;51.540;7.364;2023-10-19T11:13:11;18.30;99.90
4908;DHT22;64375;51.540;7.364;2023-10-19T11:15:48;18.40;99.90
4908;DHT22;64375;51.540;7.364;2023-10-19T11:18:29;18.50;99.90
4908;DHT22;64375;51.540;7.364;2023-10-19T11:20:58;18.50;99.90
4908;DHT22;64375;51.540;7.364;2023-10-19T11:23:48;18.50;99.90
4908;DHT22;64375;51.540;7.364;2023-10-19T11:26:24;18.50;99.90
4908;DHT22;64375;51.540;7.364;2023-10-19T11:29:04;18.50;99.90
4908;DHT22;64375;51.540;7.364;2023-10-19T11:31:32;18.40;99.90
4908;DHT22;64375;51.540;7.364;2023-10-19T11:34:05;18.40;99.90
4908;DHT22;64375;51.540;7.364;2023-10-19T11:36:38;18.40;99.90
4908;DHT22;64375;51.540;7.364;2023-10-19T11:39:06;18.40;99.90
4908;DHT22;64375;51.540;7.364;2023-10-19T11:41:43;18.40;99.90
4908;DHT22;64375;51.540;7.364;2023-10-19T11:44:11;18.40;99.90
4908;DHT22;64375;51.540;7.364;2023-10-19T11:46:42;18.40;99.90
4908;DHT22;64375;51.540;7.364;2023-10-19T11:49:13;18.40;99.90
4908;DHT22;64375;51.540;7.364;2023-10-19T11:51:42;18.40;99.90
4908;DHT22;64375;51.540;7.364;2023-10-19T11:54:10;18.40;99.90
4908;DHT22;64375;51.540;7.364;2023-10-19T11:56:43;18.40;99.90
4908;DHT22;64375;51.540;7.364;2023-10-19T11:59:14;18.40;99.90
4908;DHT22;64375;51.540;7.364;2023-10-19T12:01:42;18.50;99.90
4908;DHT22;64375;51.540;7.364;2023-10-19T12:04:10;18.50;99.90
4908;DHT22;64375;51.540;7.364;2023-10-19T12:06:38;18.50;99.90
4908;DHT22;64375;51.540;7.364;2023-10-19T12:09:11;18.50;99.90
4908;DHT22;64375;51.540;7.364;2023-10-19T12:11:44;18.50;99.90
4908;DHT22;64375;51.540;7.364;2023-10-19T12:14:14;18.60;99.90
4908;DHT22;64375;51.540;7.364;2023-10-19T12:16:49;18.60;99.90
4908;DHT22;64375;51.540;7.364;2023-10-19T12:19:19;18.70;99.90
4908;DHT22;64375;51.540;7.364;2023-10-19T12:21:54;18.70;99.90
4908;DHT22;64375;51.540;7.364;2023-10-19T12:24:22;18.80;99.90
4908;DHT22;64375;51.540;7.364;2023-10-19T12:26:58;18.80;99.90
4908;DHT22;64375;51.540;7.364;2023-10-19T12:29:28;18.70;99.90
4908;DHT22;64375;51.540;7.364;2023-10-19T12:31:58;18.70;99.90
4908;DHT22;64375;51.540;7.364;2023-10-19T12:34:33;18.70;99.90
4908;DHT22;64375;51.540;7.364;2023-10-19T12:37:07;18.70;99.90
4908;DHT22;64375;51.540;7.364;2023-10-19T12:39:37;18.70;99.90
4908;DHT22;64375;51.540;7.364;2023-10-19T12:42:11;18.70;99.90
4908;DHT22;64375;51.540;7.364;2023-10-19T12:44:40;18.70;99.90
4908;DHT22;64375;51.540;7.364;2023-10-19T12:47:13;18.70;99.90
4908;DHT22;64375;51.540;7.364;2023-10-19T12:49:43;18.70;99.90
4908;DHT22;64375;51.540;7.364;2023-10-19T12:52:15;18.70;99.90
4908;DHT22;64375;51.540;7.364;2023-10-19T12:54:56;18.70;99.90
4908;DHT22;64375;51.540;7.364;2023-10-19T12:57:37;18.80;99.90
4908;DHT22;64375;51.540;7.364;2023-10-19T13:00:07;18.80;99.90
4908;DHT22;64375;51.540;7.364;2023-10-19T13:02:49;18.90;99.90
4908;DHT22;64375;51.540;7.364;2023-10-19T13:05:32;18.90;99.90
4908;DHT22;64375;51.540;7.364;2023-10-19T13:08:01;18.90;99.90
4908;DHT22;64375;51.540;7.364;2023-10-19T13:10:30;19.00;99.90
4908;DHT22;64375;51.540;7.364;2023-10-19T13:13:04;19.00;99.90
4908;DHT22;64375;51.540;7.364;2023-10-19T13:15:33;19.00;99.90
4908;DHT22;64375;51.540;7.364;2023-10-19T13:18:02;19.00;99.90
4908;DHT22;64375;51.540;7.364;2023-10-19T13:20:36;19.00;99.90
4908;DHT22;64375;51.540;7.364;2023-10-19T13:23:07;19.00;99.90
4908;DHT22;64375;51.540;7.364;2023-10-19T13:25:39;18.90;99.90
4908;DHT22;64375;51.540;7.364;2023-10-19T13:28:16;18.90;99.90
4908;DHT22;64375;51.540;7.364;2023-10-19T13:30:47;18.90;99.90
4908;DHT22;64375;51.540;7.364;2023-10-19T13:33:16;18.90;99.90
4908;DHT22;64375;51.540;7.364;2023-10-19T13:35:45;19.00;99.90
4908;DHT22;64375;51.540;7.364;2023-10-19T13:38:16;19.00;99.90
4908;DHT22;64375;51.540;7.364;2023-10-19T13:40:44;19.00;99.90
4908;DHT22;64375;51.540;7.364;2023-10-19T13:43:18;19.00;99.90
4908;DHT22;64375;51.540;7.364;2023-10-19T13:45:47;19.00;99.90
4908;DHT22;64375;51.540;7.364;2023-10-19T13:48:15;19.10;99.90
4908;DHT22;64375;51.540;7.364;2023-10-19T13:50:45;19.10;99.90
4908;DHT22;64375;51.540;7.364;2023-10-19T13:53:15;19.10;99.90
4908;DHT22;64375;51.540;7.364;2023-10-19T13:55:46;19.10;99.90
4908;DHT22;64375;51.540;7.364;2023-10-19T13:58:22;19.10;99.90
4908;DHT22;64375;51.540;7.364;2023-10-19T14:00:50;19.10;99.90
4908;DHT22;64375;51.540;7.364;2023-10-19T14:03:31;19.10;99.90
4908;DHT22;64375;51.540;7.364;2023-10-19T14:05:59;19.10;99.90
4908;DHT22;64375;51.540;7.364;2023-10-19T14:08:30;19.10;99.90
4908;DHT22;64375;51.540;7.364;2023-10-19T14:11:02;19.10;99.90
4908;DHT22;64375;51.540;7.364;2023-10-19T14:13:35;19.10;99.90
4908;DHT22;64375;51.540;7.364;2023-10-19T14:16:06;19.10;99.90
4908;DHT22;64375;51.540;7.364;2023-10-19T14:18:36;19.10;99.90
4908;DHT22;64375;51.540;7.364;2023-10-19T14:21:13;19.10;99.90
4908;DHT22;64375;51.540;7.364;2023-10-19T14:23:41;19.10;99.90
4908;DHT22;64375;51.540;7.364;2023-10-19T14:26:10;19.10;99.90
4908;DHT22;64375;51.540;7.364;2023-10-19T14:28:46;19.10;99.90
4908;DHT22;64375;51.540;7.364;2023-10-19T14:31:14;19.10;99.90
4908;DHT22;64375;51.540;7.364;2023-10-19T14:33:46;19.20;99.90
4908;DHT22;64375;51.540;7.364;2023-10-19T14:36:14;19.20;99.90
4908;DHT22;64375;51.540;7.364;2023-10-19T14:38:42;19.10;99.90
4908;DHT22;64375;51.540;7.364;2023-10-19T14:41:11;19.10;99.90
4908;DHT22;64375;51.540;7.364;2023-10-19T14:43:40;19.10;99.90
4908;DHT22;64375;51.540;7.364;2023-10-19T14:46:18;19.10;99.90
4908;DHT22;64375;51.540;7.364;2023-10-19T14:48:46;19.00;99.90
4908;DHT22;64375;51.540;7.364;2023-10-19T14:51:14;19.00;99.90
4908;DHT22;64375;51.540;7.364;2023-10-19T14:53:43;19.00;99.90
4908;DHT22;64375;51.540;7.364;2023-10-19T14:56:17;18.90;99.90
4908;DHT22;64375;51.540;7.364;2023-10-19T14:58:45;18.90;99.90
4908;DHT22;64375;51.540;7.364;2023-10-19T15:01:13;18.90;99.90
4908;DHT22;64375;51.540;7.364;2023-10-19T15:03:53;18.90;99.90
4908;DHT22;64375;51.540;7.364;2023-10-19T15:06:21;18.90;99.90
4908;DHT22;64375;51.540;7.364;2023-10-19T15:08:49;18.90;99.90
4908;DHT22;64375;51.540;7.364;2023-10-19T15:11:17;18.80;99.90
4908;DHT22;64375;51.540;7.364;2023-10-19T15:13:48;18.90;99.90
4908;DHT22;64375;51.540;7.364;2023-10-19T15:16:17;18.80;99.90
4908;DHT22;64375;51.540;7.364;2023-10-19T15:18:45;18.80;99.90
4908;DHT22;64375;51.540;7.364;2023-10-19T15:21:16;18.80;99.90
4908;DHT22;64375;51.540;7.364;2023-10-19T15:23:44;18.70;99.90
4908;DHT22;64375;51.540;7.364;2023-10-19T15:26:16;18.70;99.90
4908;DHT22;64375;51.540;7.364;2023-10-19T15:28:45;18.70;99.90
4908;DHT22;64375;51.540;7.364;2023-10-19T15:31:16;18.70;99.90
4908;DHT22;64375;51.540;7.364;2023-10-19T15:33:54;18.70;99.90
4908;DHT22;64375;51.540;7.364;2023-10-19T15:36:30;18.70;99.90
4908;DHT22;64375;51.540;7.364;2023-10-19T15:38:58;18.70;99.90
4908;DHT22;64375;51.540;7.364;2023-10-19T15:41:33;18.70;99.90
4908;DHT22;64375;51.540;7.364;2023-10-19T15:44:01;18.70;99.90
4908;DHT22;64375;51.540;7.364;2023-10-19T15:46:31;18.70;99.90
4908;DHT22;64375;51.540;7.364;2023-10-19T15:49:00;18.60;99.90
4908;DHT22;64375;51.540;7.364;2023-10-19T15:51:30;18.80;99.90
4908;DHT22;64375;51.540;7.364;2023-10-19T15:53:58;18.80;99.90
4908;DHT22;64375;51.540;7.364;2023-10-19T15:56:34;18.80;99.90
4908;DHT22;64375;51.540;7.364;2023-10-19T15:59:02;18.70;99.90
4908;DHT22;64375;51.540;7.364;2023-10-19T16:01:36;18.80;99.90
4908;DHT22;64375;51.540;7.364;2023-10-19T16:04:05;18.80;99.90
4908;DHT22;64375;51.540;7.364;2023-10-19T16:06:34;18.80;99.90
4908;DHT22;64375;51.540;7.364;2023-10-19T16:09:02;18.80;99.90
4908;DHT22;64375;51.540;7.364;2023-10-19T16:11:31;18.80;99.90
4908;DHT22;64375;51.540;7.364;2023-10-19T16:13:59;18.80;99.90
4908;DHT22;64375;51.540;7.364;2023-10-19T16:16:27;18.80;99.90
4908;DHT22;64375;51.540;7.364;2023-10-19T16:18:58;18.80;99.90
4908;DHT22;64375;51.540;7.364;2023-10-19T16:21:26;18.70;99.90